Weather at Roche Harbor Airport

Public forecast

Using degrees Fahrenheit for public forecast. Weather courtesy of forecast.io.

Closest aviation weather report (METAR) to Roche Harbor Airport

Closest report is Friday Harbor Airport, 7.0 nm (13.0 km) SE.

2024/05/18 21:53 (retrieved 1 hour ago)

KFHR 182153Z AUTO VRB03KT 10SM -RA FEW044 BKN055 OVC070 13/07 A3006 RMK AO2 RAB36 SLP180 P0000 T01280067

Closest aviation forecast (TAF) to Roche Harbor Airport

Closest forecast is Victoria International Airport, 11.6 nm (21.6 km) W.

2024/05/18 20:41 Ammendment (retrieved 3 hours ago)

TAF AMD CYYJ 182037Z 1820/1918 07010KT P6SM FEW025 BKN140 TEMPO 1820/1903 5SM -SHRA BR BKN020 FM190300 22007KT P6SM SCT050 BECMG 1904/1906 20007KT FM190900 19006KT P6SM BKN030 TEMPO 1909/1918 P6SM -SHRA BKN020 RMK NXT FCST BY 190000Z